sensor_id;sensor_type;location;lat;lon;timestamp;temperature;humidity
67586;SHT31;55785;47.946;20.540;2023-08-12T00:00:26;13.61;81.50
67586;SHT31;55785;47.946;20.540;2023-08-12T00:02:51;13.60;81.37
67586;SHT31;55785;47.946;20.540;2023-08-12T00:05:17;13.60;81.46
67586;SHT31;55785;47.946;20.540;2023-08-12T00:07:42;13.60;81.35
67586;SHT31;55785;47.946;20.540;2023-08-12T00:10:09;13.61;81.23
67586;SHT31;55785;47.946;20.540;2023-08-12T00:12:35;13.55;81.29
67586;SHT31;55785;47.946;20.540;2023-08-12T00:15:01;13.54;81.32
67586;SHT31;55785;47.946;20.540;2023-08-12T00:17:27;13.51;81.44
67586;SHT31;55785;47.946;20.540;2023-08-12T00:19:52;13.48;81.32
67586;SHT31;55785;47.946;20.540;2023-08-12T00:22:17;13.47;81.39
67586;SHT31;55785;47.946;20.540;2023-08-12T00:24:43;13.43;81.42
67586;SHT31;55785;47.946;20.540;2023-08-12T00:27:08;13.41;81.60
67586;SHT31;55785;47.946;20.540;2023-08-12T00:29:34;13.36;81.68
67586;SHT31;55785;47.946;20.540;2023-08-12T00:32:00;13.33;81.79
67586;SHT31;55785;47.946;20.540;2023-08-12T00:34:25;13.31;81.58
67586;SHT31;55785;47.946;20.540;2023-08-12T00:36:51;13.28;81.69
67586;SHT31;55785;47.946;20.540;2023-08-12T00:39:16;13.26;81.65
67586;SHT31;55785;47.946;20.540;2023-08-12T00:41:41;13.26;81.80
67586;SHT31;55785;47.946;20.540;2023-08-12T00:44:07;13.31;82.10
67586;SHT31;55785;47.946;20.540;2023-08-12T00:46:33;13.27;81.89
67586;SHT31;55785;47.946;20.540;2023-08-12T00:48:59;13.23;81.82
67586;SHT31;55785;47.946;20.540;2023-08-12T00:51:24;13.22;81.74
67586;SHT31;55785;47.946;20.540;2023-08-12T00:53:50;13.20;81.62
67586;SHT31;55785;47.946;20.540;2023-08-12T00:56:16;13.17;81.80
67586;SHT31;55785;47.946;20.540;2023-08-12T00:58:42;13.12;81.89
67586;SHT31;55785;47.946;20.540;2023-08-12T01:01:08;13.09;81.98
67586;SHT31;55785;47.946;20.540;2023-08-12T01:03:34;13.09;81.91
67586;SHT31;55785;47.946;20.540;2023-08-12T01:06:00;13.06;81.58
67586;SHT31;55785;47.946;20.540;2023-08-12T01:08:31;13.00;81.84
67586;SHT31;55785;47.946;20.540;2023-08-12T01:13:57;12.95;82.10
67586;SHT31;55785;47.946;20.540;2023-08-12T01:16:26;12.91;82.37
67586;SHT31;55785;47.946;20.540;2023-08-12T01:18:53;12.86;82.33
67586;SHT31;55785;47.946;20.540;2023-08-12T01:21:21;12.86;82.25
67586;SHT31;55785;47.946;20.540;2023-08-12T01:23:46;12.82;82.55
67586;SHT31;55785;47.946;20.540;2023-08-12T01:26:12;12.83;82.61
67586;SHT31;55785;47.946;20.540;2023-08-12T01:28:37;12.79;82.48
67586;SHT31;55785;47.946;20.540;2023-08-12T01:33:44;12.76;82.28
67586;SHT31;55785;47.946;20.540;2023-08-12T01:36:20;12.73;82.28
67586;SHT31;55785;47.946;20.540;2023-08-12T01:38:47;12.72;82.21
67586;SHT31;55785;47.946;20.540;2023-08-12T01:41:16;12.71;82.26
67586;SHT31;55785;47.946;20.540;2023-08-12T01:43:43;12.71;82.07
67586;SHT31;55785;47.946;20.540;2023-08-12T01:46:09;12.71;81.83
67586;SHT31;55785;47.946;20.540;2023-08-12T01:48:35;12.71;81.82
67586;SHT31;55785;47.946;20.540;2023-08-12T01:51:00;12.69;81.88
67586;SHT31;55785;47.946;20.540;2023-08-12T01:53:26;12.66;81.90
67586;SHT31;55785;47.946;20.540;2023-08-12T01:55:52;12.71;81.70
67586;SHT31;55785;47.946;20.540;2023-08-12T01:58:17;12.73;81.54
67586;SHT31;55785;47.946;20.540;2023-08-12T02:00:42;12.72;81.40
67586;SHT31;55785;47.946;20.540;2023-08-12T02:03:08;12.71;81.36
67586;SHT31;55785;47.946;20.540;2023-08-12T02:05:33;12.69;81.38
67586;SHT31;55785;47.946;20.540;2023-08-12T02:07:58;12.65;81.32
67586;SHT31;55785;47.946;20.540;2023-08-12T02:10:24;12.65;81.35
67586;SHT31;55785;47.946;20.540;2023-08-12T02:12:49;12.68;81.35
67586;SHT31;55785;47.946;20.540;2023-08-12T02:15:15;12.65;81.32
67586;SHT31;55785;47.946;20.540;2023-08-12T02:17:40;12.61;81.20
67586;SHT31;55785;47.946;20.540;2023-08-12T02:20:06;12.59;81.41
67586;SHT31;55785;47.946;20.540;2023-08-12T02:22:31;12.56;81.36
67586;SHT31;55785;47.946;20.540;2023-08-12T02:24:57;12.58;81.37
67586;SHT31;55785;47.946;20.540;2023-08-12T02:27:22;12.55;81.17
67586;SHT31;55785;47.946;20.540;2023-08-12T02:29:47;12.56;81.34
67586;SHT31;55785;47.946;20.540;2023-08-12T02:32:13;12.52;81.44
67586;SHT31;55785;47.946;20.540;2023-08-12T02:34:38;12.54;81.47
67586;SHT31;55785;47.946;20.540;2023-08-12T02:37:04;12.51;81.44
67586;SHT31;55785;47.946;20.540;2023-08-12T02:39:29;12.49;81.44
67586;SHT31;55785;47.946;20.540;2023-08-12T02:41:54;12.51;81.53
67586;SHT31;55785;47.946;20.540;2023-08-12T02:44:20;12.44;81.48
67586;SHT31;55785;47.946;20.540;2023-08-12T02:46:45;12.42;81.67
67586;SHT31;55785;47.946;20.540;2023-08-12T02:49:10;12.34;82.10
67586;SHT31;55785;47.946;20.540;2023-08-12T02:51:36;12.27;82.39
67586;SHT31;55785;47.946;20.540;2023-08-12T02:54:01;12.21;82.45
67586;SHT31;55785;47.946;20.540;2023-08-12T02:56:27;12.17;82.74
67586;SHT31;55785;47.946;20.540;2023-08-12T02:58:52;12.12;82.53
67586;SHT31;55785;47.946;20.540;2023-08-12T03:01:17;12.07;82.77
67586;SHT31;55785;47.946;20.540;2023-08-12T03:03:43;12.08;83.10
67586;SHT31;55785;47.946;20.540;2023-08-12T03:06:08;12.07;82.67
67586;SHT31;55785;47.946;20.540;2023-08-12T03:08:34;12.04;82.79
67586;SHT31;55785;47.946;20.540;2023-08-12T03:11:00;12.04;82.77
67586;SHT31;55785;47.946;20.540;2023-08-12T03:13:26;12.06;82.80
67586;SHT31;55785;47.946;20.540;2023-08-12T03:15:51;12.07;82.64
67586;SHT31;55785;47.946;20.540;2023-08-12T03:18:17;12.08;82.71
67586;SHT31;55785;47.946;20.540;2023-08-12T03:20:42;12.10;82.56
67586;SHT31;55785;47.946;20.540;2023-08-12T03:23:07;12.13;82.52
67586;SHT31;55785;47.946;20.540;2023-08-12T03:25:33;12.13;82.31
67586;SHT31;55785;47.946;20.540;2023-08-12T03:27:58;12.14;82.13
67586;SHT31;55785;47.946;20.540;2023-08-12T03:30:23;12.13;82.15
67586;SHT31;55785;47.946;20.540;2023-08-12T03:32:49;12.14;82.04
67586;SHT31;55785;47.946;20.540;2023-08-12T03:35:14;12.14;81.93
67586;SHT31;55785;47.946;20.540;2023-08-12T03:37:39;12.17;81.82
67586;SHT31;55785;47.946;20.540;2023-08-12T03:40:05;12.16;81.52
67586;SHT31;55785;47.946;20.540;2023-08-12T03:42:31;12.20;81.62
67586;SHT31;55785;47.946;20.540;2023-08-12T03:44:56;12.23;81.58
67586;SHT31;55785;47.946;20.540;2023-08-12T03:47:22;12.25;81.53
67586;SHT31;55785;47.946;20.540;2023-08-12T03:49:47;12.28;81.39
67586;SHT31;55785;47.946;20.540;2023-08-12T03:52:13;12.31;81.36
67586;SHT31;55785;47.946;20.540;2023-08-12T03:54:38;12.31;81.54
67586;SHT31;55785;47.946;20.540;2023-08-12T03:57:03;12.33;81.09
67586;SHT31;55785;47.946;20.540;2023-08-12T03:59:29;12.35;81.24
67586;SHT31;55785;47.946;20.540;2023-08-12T04:01:54;12.34;80.79
67586;SHT31;55785;47.946;20.540;2023-08-12T04:04:20;12.37;80.97
67586;SHT31;55785;47.946;20.540;2023-08-12T04:06:45;12.48;80.94
67586;SHT31;55785;47.946;20.540;2023-08-12T04:09:10;12.54;80.78
67586;SHT31;55785;47.946;20.540;2023-08-12T04:11:36;12.61;81.04
67586;SHT31;55785;47.946;20.540;2023-08-12T04:14:01;12.69;80.67
67586;SHT31;55785;47.946;20.540;2023-08-12T04:16:26;12.73;80.18
67586;SHT31;55785;47.946;20.540;2023-08-12T04:18:52;12.79;79.74
67586;SHT31;55785;47.946;20.540;2023-08-12T04:21:17;12.83;79.55
67586;SHT31;55785;47.946;20.540;2023-08-12T04:23:42;12.91;79.59
67586;SHT31;55785;47.946;20.540;2023-08-12T04:26:08;12.97;79.57
67586;SHT31;55785;47.946;20.540;2023-08-12T04:28:33;13.07;79.90
67586;SHT31;55785;47.946;20.540;2023-08-12T04:30:58;13.14;79.17
67586;SHT31;55785;47.946;20.540;2023-08-12T04:33:24;13.24;78.95
67586;SHT31;55785;47.946;20.540;2023-08-12T04:35:49;13.33;79.04
67586;SHT31;55785;47.946;20.540;2023-08-12T04:38:15;13.46;78.87
67586;SHT31;55785;47.946;20.540;2023-08-12T04:40:41;13.54;78.88
67586;SHT31;55785;47.946;20.540;2023-08-12T04:43:10;13.62;78.80
67586;SHT31;55785;47.946;20.540;2023-08-12T04:45:35;13.71;77.99
67586;SHT31;55785;47.946;20.540;2023-08-12T04:48:02;13.82;78.38
67586;SHT31;55785;47.946;20.540;2023-08-12T04:50:31;13.88;78.74
67586;SHT31;55785;47.946;20.540;2023-08-12T04:52:57;13.97;78.47
67586;SHT31;55785;47.946;20.540;2023-08-12T04:55:25;14.04;78.13
67586;SHT31;55785;47.946;20.540;2023-08-12T04:57:50;14.13;77.82
67586;SHT31;55785;47.946;20.540;2023-08-12T05:00:15;14.23;78.07
67586;SHT31;55785;47.946;20.540;2023-08-12T05:02:41;14.32;77.55
67586;SHT31;55785;47.946;20.540;2023-08-12T05:05:06;14.37;77.60
67586;SHT31;55785;47.946;20.540;2023-08-12T05:07:32;14.46;77.69
67586;SHT31;55785;47.946;20.540;2023-08-12T05:09:57;14.50;77.11
67586;SHT31;55785;47.946;20.540;2023-08-12T05:12:23;14.57;77.19
67586;SHT31;55785;47.946;20.540;2023-08-12T05:14:48;14.66;78.19
67586;SHT31;55785;47.946;20.540;2023-08-12T05:17:13;14.76;77.80
67586;SHT31;55785;47.946;20.540;2023-08-12T05:19:39;14.87;77.43
67586;SHT31;55785;47.946;20.540;2023-08-12T05:22:04;14.91;76.33
67586;SHT31;55785;47.946;20.540;2023-08-12T05:24:29;15.02;76.73
67586;SHT31;55785;47.946;20.540;2023-08-12T05:26:55;15.14;77.07
67586;SHT31;55785;47.946;20.540;2023-08-12T05:29:20;15.34;76.30
67586;SHT31;55785;47.946;20.540;2023-08-12T05:31:45;15.50;76.34
67586;SHT31;55785;47.946;20.540;2023-08-12T05:34:11;15.62;75.92
67586;SHT31;55785;47.946;20.540;2023-08-12T05:36:36;15.82;74.77
67586;SHT31;55785;47.946;20.540;2023-08-12T05:39:02;15.97;75.66
67586;SHT31;55785;47.946;20.540;2023-08-12T05:41:27;16.11;74.84
67586;SHT31;55785;47.946;20.540;2023-08-12T05:43:52;16.29;74.30
67586;SHT31;55785;47.946;20.540;2023-08-12T05:46:18;16.35;73.80
67586;SHT31;55785;47.946;20.540;2023-08-12T05:48:43;16.41;74.39
67586;SHT31;55785;47.946;20.540;2023-08-12T05:51:08;16.55;74.61
67586;SHT31;55785;47.946;20.540;2023-08-12T05:53:34;16.76;75.11
67586;SHT31;55785;47.946;20.540;2023-08-12T05:55:59;16.97;75.06
67586;SHT31;55785;47.946;20.540;2023-08-12T05:58:25;17.23;73.34
67586;SHT31;55785;47.946;20.540;2023-08-12T06:00:51;17.45;72.87
67586;SHT31;55785;47.946;20.540;2023-08-12T06:03:16;17.61;71.71
67586;SHT31;55785;47.946;20.540;2023-08-12T06:05:44;17.78;72.38
67586;SHT31;55785;47.946;20.540;2023-08-12T06:08:09;17.88;72.92
67586;SHT31;55785;47.946;20.540;2023-08-12T06:10:34;17.99;71.62
67586;SHT31;55785;47.946;20.540;2023-08-12T06:13:00;18.13;72.38
67586;SHT31;55785;47.946;20.540;2023-08-12T06:15:25;18.22;70.54
67586;SHT31;55785;47.946;20.540;2023-08-12T06:17:51;18.36;70.62
67586;SHT31;55785;47.946;20.540;2023-08-12T06:20:16;18.51;68.80
67586;SHT31;55785;47.946;20.540;2023-08-12T06:22:41;18.58;70.37
67586;SHT31;55785;47.946;20.540;2023-08-12T06:25:07;18.71;69.85
67586;SHT31;55785;47.946;20.540;2023-08-12T06:27:33;18.87;70.53
67586;SHT31;55785;47.946;20.540;2023-08-12T06:29:58;19.11;68.89
67586;SHT31;55785;47.946;20.540;2023-08-12T06:32:23;19.23;69.92
67586;SHT31;55785;47.946;20.540;2023-08-12T06:34:49;19.37;69.79
67586;SHT31;55785;47.946;20.540;2023-08-12T06:37:14;19.50;69.00
67586;SHT31;55785;47.946;20.540;2023-08-12T06:39:40;19.64;68.34
67586;SHT31;55785;47.946;20.540;2023-08-12T06:42:05;19.75;68.89
67586;SHT31;55785;47.946;20.540;2023-08-12T06:44:30;19.77;67.25
67586;SHT31;55785;47.946;20.540;2023-08-12T06:46:56;19.87;68.97
67586;SHT31;55785;47.946;20.540;2023-08-12T06:49:21;20.05;67.23
67586;SHT31;55785;47.946;20.540;2023-08-12T06:51:47;20.26;67.77
67586;SHT31;55785;47.946;20.540;2023-08-12T06:54:12;20.39;67.89
67586;SHT31;55785;47.946;20.540;2023-08-12T06:56:37;20.52;68.28
67586;SHT31;55785;47.946;20.540;2023-08-12T06:59:03;20.67;67.71
67586;SHT31;55785;47.946;20.540;2023-08-12T07:01:28;20.66;63.06
67586;SHT31;55785;47.946;20.540;2023-08-12T07:03:54;20.81;64.32
67586;SHT31;55785;47.946;20.540;2023-08-12T07:06:19;20.91;64.61
67586;SHT31;55785;47.946;20.540;2023-08-12T07:08:44;20.90;60.63
67586;SHT31;55785;47.946;20.540;2023-08-12T07:11:10;21.04;64.89
67586;SHT31;55785;47.946;20.540;2023-08-12T07:13:35;21.12;64.34
67586;SHT31;55785;47.946;20.540;2023-08-12T07:16:01;21.14;60.49
67586;SHT31;55785;47.946;20.540;2023-08-12T07:18:26;21.10;57.58
67586;SHT31;55785;47.946;20.540;2023-08-12T07:20:51;21.35;56.31
67586;SHT31;55785;47.946;20.540;2023-08-12T07:23:17;21.31;52.97
67586;SHT31;55785;47.946;20.540;2023-08-12T07:25:42;21.28;52.96
67586;SHT31;55785;47.946;20.540;2023-08-12T07:28:07;21.41;52.90
67586;SHT31;55785;47.946;20.540;2023-08-12T07:30:36;21.49;53.82
67586;SHT31;55785;47.946;20.540;2023-08-12T07:33:01;21.51;58.09
67586;SHT31;55785;47.946;20.540;2023-08-12T07:35:27;21.55;54.94
67586;SHT31;55785;47.946;20.540;2023-08-12T07:37:52;21.83;53.04
67586;SHT31;55785;47.946;20.540;2023-08-12T07:40:17;22.02;53.65
67586;SHT31;55785;47.946;20.540;2023-08-12T07:42:43;21.99;54.08
67586;SHT31;55785;47.946;20.540;2023-08-12T07:45:09;21.92;52.47
67586;SHT31;55785;47.946;20.540;2023-08-12T07:47:34;21.90;54.73
67586;SHT31;55785;47.946;20.540;2023-08-12T07:49:59;21.93;54.68
67586;SHT31;55785;47.946;20.540;2023-08-12T07:52:25;22.13;56.90
67586;SHT31;55785;47.946;20.540;2023-08-12T07:54:50;22.24;57.40
67586;SHT31;55785;47.946;20.540;2023-08-12T07:57:16;22.41;55.32
67586;SHT31;55785;47.946;20.540;2023-08-12T07:59:41;22.52;57.53
67586;SHT31;55785;47.946;20.540;2023-08-12T08:02:06;22.54;54.80
67586;SHT31;55785;47.946;20.540;2023-08-12T08:04:32;22.54;53.31
67586;SHT31;55785;47.946;20.540;2023-08-12T08:06:57;22.69;54.16
67586;SHT31;55785;47.946;20.540;2023-08-12T08:09:22;22.71;52.03
67586;SHT31;55785;47.946;20.540;2023-08-12T08:11:48;22.73;50.86
67586;SHT31;55785;47.946;20.540;2023-08-12T08:14:13;22.76;50.55
67586;SHT31;55785;47.946;20.540;2023-08-12T08:16:38;22.81;53.91
67586;SHT31;55785;47.946;20.540;2023-08-12T08:19:04;22.84;50.53
67586;SHT31;55785;47.946;20.540;2023-08-12T08:21:29;22.92;51.36
67586;SHT31;55785;47.946;20.540;2023-08-12T08:23:54;22.99;48.76
67586;SHT31;55785;47.946;20.540;2023-08-12T08:26:20;23.00;50.27
67586;SHT31;55785;47.946;20.540;2023-08-12T08:28:45;23.02;47.87
67586;SHT31;55785;47.946;20.540;2023-08-12T08:31:10;23.05;47.92
67586;SHT31;55785;47.946;20.540;2023-08-12T08:33:36;23.08;50.78
67586;SHT31;55785;47.946;20.540;2023-08-12T08:36:01;23.12;50.79
67586;SHT31;55785;47.946;20.540;2023-08-12T08:38:27;23.26;49.36
67586;SHT31;55785;47.946;20.540;2023-08-12T08:40:52;23.50;45.47
67586;SHT31;55785;47.946;20.540;2023-08-12T08:43:21;23.66;48.59
67586;SHT31;55785;47.946;20.540;2023-08-12T08:45:49;23.68;42.92
67586;SHT31;55785;47.946;20.540;2023-08-12T08:48:17;23.78;43.81
67586;SHT31;55785;47.946;20.540;2023-08-12T08:50:44;23.87;47.82
67586;SHT31;55785;47.946;20.540;2023-08-12T08:53:10;23.81;42.83
67586;SHT31;55785;47.946;20.540;2023-08-12T08:55:36;23.73;45.09
67586;SHT31;55785;47.946;20.540;2023-08-12T08:58:02;23.63;42.34
67586;SHT31;55785;47.946;20.540;2023-08-12T09:00:28;23.61;43.42
67586;SHT31;55785;47.946;20.540;2023-08-12T09:02:54;23.64;44.88
67586;SHT31;55785;47.946;20.540;2023-08-12T09:05:22;23.70;45.27
67586;SHT31;55785;47.946;20.540;2023-08-12T09:07:49;23.61;45.75
67586;SHT31;55785;47.946;20.540;2023-08-12T09:10:16;23.68;50.05
67586;SHT31;55785;47.946;20.540;2023-08-12T09:12:43;23.79;49.33
67586;SHT31;55785;47.946;20.540;2023-08-12T09:15:09;23.87;48.97
67586;SHT31;55785;47.946;20.540;2023-08-12T09:17:35;24.11;49.14
67586;SHT31;55785;47.946;20.540;2023-08-12T09:20:00;24.32;44.99
67586;SHT31;55785;47.946;20.540;2023-08-12T09:22:26;24.45;47.29
67586;SHT31;55785;47.946;20.540;2023-08-12T09:24:57;24.46;46.18
67586;SHT31;55785;47.946;20.540;2023-08-12T09:27:23;24.39;47.22
67586;SHT31;55785;47.946;20.540;2023-08-12T09:29:49;24.25;44.52
67586;SHT31;55785;47.946;20.540;2023-08-12T09:32:19;24.33;46.76
67586;SHT31;55785;47.946;20.540;2023-08-12T09:34:51;24.40;46.42
67586;SHT31;55785;47.946;20.540;2023-08-12T09:37:21;24.28;45.58
67586;SHT31;55785;47.946;20.540;2023-08-12T09:39:48;24.14;44.50
67586;SHT31;55785;47.946;20.540;2023-08-12T09:42:13;24.25;44.94
67586;SHT31;55785;47.946;20.540;2023-08-12T09:44:39;24.33;47.36
67586;SHT31;55785;47.946;20.540;2023-08-12T09:47:06;24.43;43.45
67586;SHT31;55785;47.946;20.540;2023-08-12T09:49:31;24.52;44.80
67586;SHT31;55785;47.946;20.540;2023-08-12T09:51:58;24.69;45.89
67586;SHT31;55785;47.946;20.540;2023-08-12T09:54:27;24.87;45.25
67586;SHT31;55785;47.946;20.540;2023-08-12T09:56:57;25.00;44.87
67586;SHT31;55785;47.946;20.540;2023-08-12T09:59:24;25.03;48.17
67586;SHT31;55785;47.946;20.540;2023-08-12T10:01:50;24.81;47.82
67586;SHT31;55785;47.946;20.540;2023-08-12T10:04:18;24.72;48.06
67586;SHT31;55785;47.946;20.540;2023-08-12T10:06:47;24.63;43.97
67586;SHT31;55785;47.946;20.540;2023-08-12T10:09:15;24.81;47.65
67586;SHT31;55785;47.946;20.540;2023-08-12T10:11:42;24.88;45.96
67586;SHT31;55785;47.946;20.540;2023-08-12T10:14:09;24.77;42.07
67586;SHT31;55785;47.946;20.540;2023-08-12T10:16:35;24.87;46.27
67586;SHT31;55785;47.946;20.540;2023-08-12T10:19:02;25.00;47.23
67586;SHT31;55785;47.946;20.540;2023-08-12T10:21:29;25.21;47.89
67586;SHT31;55785;47.946;20.540;2023-08-12T10:23:57;25.31;45.18
67586;SHT31;55785;47.946;20.540;2023-08-12T10:26:22;25.38;43.42
67586;SHT31;55785;47.946;20.540;2023-08-12T10:28:49;25.46;43.63
67586;SHT31;55785;47.946;20.540;2023-08-12T10:31:14;25.63;48.88
67586;SHT31;55785;47.946;20.540;2023-08-12T10:33:40;25.76;46.19
67586;SHT31;55785;47.946;20.540;2023-08-12T10:36:07;25.78;45.59
67586;SHT31;55785;47.946;20.540;2023-08-12T10:38:33;25.52;44.66
67586;SHT31;55785;47.946;20.540;2023-08-12T10:41:21;25.42;44.53
67586;SHT31;55785;47.946;20.540;2023-08-12T10:44:01;25.42;49.30
67586;SHT31;55785;47.946;20.540;2023-08-12T10:46:34;25.22;46.04
67586;SHT31;55785;47.946;20.540;2023-08-12T10:49:07;25.20;44.68
67586;SHT31;55785;47.946;20.540;2023-08-12T10:51:39;25.53;44.01
67586;SHT31;55785;47.946;20.540;2023-08-12T10:54:25;25.88;42.82
67586;SHT31;55785;47.946;20.540;2023-08-12T10:59:53;26.01;41.72
67586;SHT31;55785;47.946;20.540;2023-08-12T11:02:20;26.04;40.73
67586;SHT31;55785;47.946;20.540;2023-08-12T11:04:49;26.23;41.81
67586;SHT31;55785;47.946;20.540;2023-08-12T11:07:19;26.52;42.99
67586;SHT31;55785;47.946;20.540;2023-08-12T11:09:45;26.68;47.75
67586;SHT31;55785;47.946;20.540;2023-08-12T11:12:11;26.65;46.09
67586;SHT31;55785;47.946;20.540;2023-08-12T11:14:57;26.58;41.84
67586;SHT31;55785;47.946;20.540;2023-08-12T11:17:40;26.45;40.23
67586;SHT31;55785;47.946;20.540;2023-08-12T11:20:08;26.58;38.74
67586;SHT31;55785;47.946;20.540;2023-08-12T11:22:36;26.68;39.21
67586;SHT31;55785;47.946;20.540;2023-08-12T11:25:03;26.65;40.65
67586;SHT31;55785;47.946;20.540;2023-08-12T11:30:03;26.37;41.21
67586;SHT31;55785;47.946;20.540;2023-08-12T11:32:29;26.52;43.44
67586;SHT31;55785;47.946;20.540;2023-08-12T11:34:54;26.72;41.10
67586;SHT31;55785;47.946;20.540;2023-08-12T11:37:20;26.89;42.66
67586;SHT31;55785;47.946;20.540;2023-08-12T11:39:45;26.99;43.74
67586;SHT31;55785;47.946;20.540;2023-08-12T11:42:11;26.95;42.02
67586;SHT31;55785;47.946;20.540;2023-08-12T11:44:36;26.88;40.03
67586;SHT31;55785;47.946;20.540;2023-08-12T11:47:01;27.02;44.18
67586;SHT31;55785;47.946;20.540;2023-08-12T11:49:27;27.19;45.35
67586;SHT31;55785;47.946;20.540;2023-08-12T11:51:52;26.85;41.89
67586;SHT31;55785;47.946;20.540;2023-08-12T11:54:18;26.91;43.11
67586;SHT31;55785;47.946;20.540;2023-08-12T11:56:43;26.82;43.06
67586;SHT31;55785;47.946;20.540;2023-08-12T11:59:09;27.09;46.55
67586;SHT31;55785;47.946;20.540;2023-08-12T12:01:34;27.22;46.66
67586;SHT31;55785;47.946;20.540;2023-08-12T12:04:00;27.33;43.03
67586;SHT31;55785;47.946;20.540;2023-08-12T12:06:35;27.44;42.46
67586;SHT31;55785;47.946;20.540;2023-08-12T12:09:05;27.42;40.87
67586;SHT31;55785;47.946;20.540;2023-08-12T12:11:32;27.37;41.77
67586;SHT31;55785;47.946;20.540;2023-08-12T12:14:03;27.49;43.89
67586;SHT31;55785;47.946;20.540;2023-08-12T12:16:47;27.32;46.08
67586;SHT31;55785;47.946;20.540;2023-08-12T12:19:20;26.81;42.63
67586;SHT31;55785;47.946;20.540;2023-08-12T12:21:48;27.00;40.89
67586;SHT31;55785;47.946;20.540;2023-08-12T12:24:13;27.30;40.44
67586;SHT31;55785;47.946;20.540;2023-08-12T12:26:39;27.61;40.55
67586;SHT31;55785;47.946;20.540;2023-08-12T12:29:05;27.76;40.40
67586;SHT31;55785;47.946;20.540;2023-08-12T12:31:35;27.99;41.47
67586;SHT31;55785;47.946;20.540;2023-08-12T12:34:01;27.87;40.59
67586;SHT31;55785;47.946;20.540;2023-08-12T12:36:27;28.09;41.21
67586;SHT31;55785;47.946;20.540;2023-08-12T12:38:52;28.26;41.09
67586;SHT31;55785;47.946;20.540;2023-08-12T12:41:17;28.11;38.51
67586;SHT31;55785;47.946;20.540;2023-08-12T12:43:43;28.19;40.53
67586;SHT31;55785;47.946;20.540;2023-08-12T12:46:08;28.31;38.00
67586;SHT31;55785;47.946;20.540;2023-08-12T12:48:34;28.45;40.09
67586;SHT31;55785;47.946;20.540;2023-08-12T12:50:59;28.20;40.07
67586;SHT31;55785;47.946;20.540;2023-08-12T12:53:24;28.11;38.85
67586;SHT31;55785;47.946;20.540;2023-08-12T12:55:50;28.22;39.13
67586;SHT31;55785;47.946;20.540;2023-08-12T12:58:15;28.15;41.99
67586;SHT31;55785;47.946;20.540;2023-08-12T13:00:41;27.99;39.99
67586;SHT31;55785;47.946;20.540;2023-08-12T13:03:06;28.12;41.68
67586;SHT31;55785;47.946;20.540;2023-08-12T13:05:31;28.09;40.01
67586;SHT31;55785;47.946;20.540;2023-08-12T13:07:57;28.18;43.52
67586;SHT31;55785;47.946;20.540;2023-08-12T13:10:22;28.16;40.17
67586;SHT31;55785;47.946;20.540;2023-08-12T13:12:47;28.08;41.56
67586;SHT31;55785;47.946;20.540;2023-08-12T13:15:13;28.15;40.59
67586;SHT31;55785;47.946;20.540;2023-08-12T13:17:38;28.06;39.52
67586;SHT31;55785;47.946;20.540;2023-08-12T13:20:04;27.84;39.69
67586;SHT31;55785;47.946;20.540;2023-08-12T13:22:29;27.78;39.61
67586;SHT31;55785;47.946;20.540;2023-08-12T13:24:55;27.76;37.38
67586;SHT31;55785;47.946;20.540;2023-08-12T13:27:20;27.81;38.95
67586;SHT31;55785;47.946;20.540;2023-08-12T13:29:46;27.92;39.11
67586;SHT31;55785;47.946;20.540;2023-08-12T13:32:11;28.09;38.61
67586;SHT31;55785;47.946;20.540;2023-08-12T13:34:36;28.38;37.92
67586;SHT31;55785;47.946;20.540;2023-08-12T13:37:02;28.50;38.92
67586;SHT31;55785;47.946;20.540;2023-08-12T13:39:27;28.63;40.66
67586;SHT31;55785;47.946;20.540;2023-08-12T13:41:52;28.43;36.15
67586;SHT31;55785;47.946;20.540;2023-08-12T13:44:18;28.43;38.41
67586;SHT31;55785;47.946;20.540;2023-08-12T13:46:43;28.64;38.25
67586;SHT31;55785;47.946;20.540;2023-08-12T13:49:09;28.74;38.93
67586;SHT31;55785;47.946;20.540;2023-08-12T13:51:34;28.71;37.01
67586;SHT31;55785;47.946;20.540;2023-08-12T13:53:59;28.38;37.94
67586;SHT31;55785;47.946;20.540;2023-08-12T13:56:25;28.23;37.39
67586;SHT31;55785;47.946;20.540;2023-08-12T13:58:50;28.55;39.14
67586;SHT31;55785;47.946;20.540;2023-08-12T14:01:15;28.84;39.18
67586;SHT31;55785;47.946;20.540;2023-08-12T14:03:41;28.81;38.34
67586;SHT31;55785;47.946;20.540;2023-08-12T14:06:06;28.63;38.51
67586;SHT31;55785;47.946;20.540;2023-08-12T14:08:31;28.64;39.55
67586;SHT31;55785;47.946;20.540;2023-08-12T14:10:57;28.73;39.32
67586;SHT31;55785;47.946;20.540;2023-08-12T14:13:22;28.94;41.03
67586;SHT31;55785;47.946;20.540;2023-08-12T14:15:47;28.96;37.73
67586;SHT31;55785;47.946;20.540;2023-08-12T14:18:13;28.91;36.77
67586;SHT31;55785;47.946;20.540;2023-08-12T14:20:38;28.98;39.70
67586;SHT31;55785;47.946;20.540;2023-08-12T14:23:04;28.83;37.47
67586;SHT31;55785;47.946;20.540;2023-08-12T14:25:30;28.13;38.52
67586;SHT31;55785;47.946;20.540;2023-08-12T14:27:55;28.01;39.42
67586;SHT31;55785;47.946;20.540;2023-08-12T14:30:23;28.01;39.21
67586;SHT31;55785;47.946;20.540;2023-08-12T14:32:49;28.22;40.33
67586;SHT31;55785;47.946;20.540;2023-08-12T14:35:14;28.32;40.19
67586;SHT31;55785;47.946;20.540;2023-08-12T14:37:40;28.43;39.77
67586;SHT31;55785;47.946;20.540;2023-08-12T14:40:05;28.61;39.49
67586;SHT31;55785;47.946;20.540;2023-08-12T14:42:31;28.73;37.73
67586;SHT31;55785;47.946;20.540;2023-08-12T14:44:56;28.69;37.79
67586;SHT31;55785;47.946;20.540;2023-08-12T14:47:22;28.55;37.45
67586;SHT31;55785;47.946;20.540;2023-08-12T14:49:47;28.60;38.53
67586;SHT31;55785;47.946;20.540;2023-08-12T14:52:17;28.64;38.82
67586;SHT31;55785;47.946;20.540;2023-08-12T14:54:42;28.67;37.84
67586;SHT31;55785;47.946;20.540;2023-08-12T14:57:08;28.39;37.39
67586;SHT31;55785;47.946;20.540;2023-08-12T14:59:33;28.32;39.02
67586;SHT31;55785;47.946;20.540;2023-08-12T15:01:58;28.40;39.54
67586;SHT31;55785;47.946;20.540;2023-08-12T15:04:24;28.42;39.54
67586;SHT31;55785;47.946;20.540;2023-08-12T15:06:49;28.43;39.60
67586;SHT31;55785;47.946;20.540;2023-08-12T15:09:14;28.35;39.73
67586;SHT31;55785;47.946;20.540;2023-08-12T15:11:40;28.13;39.60
67586;SHT31;55785;47.946;20.540;2023-08-12T15:14:05;28.13;41.00
67586;SHT31;55785;47.946;20.540;2023-08-12T15:16:30;28.08;41.05
67586;SHT31;55785;47.946;20.540;2023-08-12T15:18:56;28.16;40.38